sensor_id;sensor_type;location;lat;lon;timestamp;P1;durP1;ratioP1;P2;durP2;ratioP2
37201;SDS011;37799;52.390;6.136;2023-02-15T00:01:06;18.58;;;6.72;;
37201;SDS011;37799;52.390;6.136;2023-02-15T00:03:33;24.93;;;7.77;;
37201;SDS011;37799;52.390;6.136;2023-02-15T00:05:58;20.92;;;6.82;;
37201;SDS011;37799;52.390;6.136;2023-02-15T00:08:23;23.58;;;7.28;;
37201;SDS011;37799;52.390;6.136;2023-02-15T00:10:49;22.00;;;6.20;;
37201;SDS011;37799;52.390;6.136;2023-02-15T00:13:14;18.08;;;6.72;;
37201;SDS011;37799;52.390;6.136;2023-02-15T00:15:39;16.83;;;5.75;;
37201;SDS011;37799;52.390;6.136;2023-02-15T00:18:05;21.33;;;5.75;;
37201;SDS011;37799;52.390;6.136;2023-02-15T00:20:30;15.27;;;4.22;;
37201;SDS011;37799;52.390;6.136;2023-02-15T00:22:55;15.50;;;4.60;;
37201;SDS011;37799;52.390;6.136;2023-02-15T00:25:21;13.88;;;4.82;;
37201;SDS011;37799;52.390;6.136;2023-02-15T00:27:46;10.30;;;3.80;;
37201;SDS011;37799;52.390;6.136;2023-02-15T00:30:11;11.77;;;3.63;;
37201;SDS011;37799;52.390;6.136;2023-02-15T00:32:37;10.18;;;3.20;;
37201;SDS011;37799;52.390;6.136;2023-02-15T00:35:02;11.40;;;3.38;;
37201;SDS011;37799;52.390;6.136;2023-02-15T00:37:28;13.13;;;2.45;;
37201;SDS011;37799;52.390;6.136;2023-02-15T00:39:53;14.50;;;3.65;;
37201;SDS011;37799;52.390;6.136;2023-02-15T00:42:18;13.23;;;3.85;;
37201;SDS011;37799;52.390;6.136;2023-02-15T00:44:43;15.07;;;4.18;;
37201;SDS011;37799;52.390;6.136;2023-02-15T00:47:09;12.50;;;3.95;;
37201;SDS011;37799;52.390;6.136;2023-02-15T00:49:34;12.02;;;4.75;;
37201;SDS011;37799;52.390;6.136;2023-02-15T00:51:59;11.05;;;4.75;;
37201;SDS011;37799;52.390;6.136;2023-02-15T00:54:25;15.88;;;4.60;;
37201;SDS011;37799;52.390;6.136;2023-02-15T00:56:50;14.40;;;4.47;;
37201;SDS011;37799;52.390;6.136;2023-02-15T00:59:15;19.75;;;5.78;;
37201;SDS011;37799;52.390;6.136;2023-02-15T01:01:41;17.17;;;4.32;;
37201;SDS011;37799;52.390;6.136;2023-02-15T01:04:06;13.57;;;4.75;;
37201;SDS011;37799;52.390;6.136;2023-02-15T01:06:31;13.80;;;4.63;;
37201;SDS011;37799;52.390;6.136;2023-02-15T01:08:57;15.90;;;5.05;;
37201;SDS011;37799;52.390;6.136;2023-02-15T01:11:22;11.80;;;4.55;;
37201;SDS011;37799;52.390;6.136;2023-02-15T01:13:51;13.75;;;4.82;;
37201;SDS011;37799;52.390;6.136;2023-02-15T01:16:18;15.13;;;4.55;;
37201;SDS011;37799;52.390;6.136;2023-02-15T01:18:44;14.52;;;5.75;;
37201;SDS011;37799;52.390;6.136;2023-02-15T01:21:10;19.45;;;5.60;;
37201;SDS011;37799;52.390;6.136;2023-02-15T01:23:41;15.07;;;5.00;;
37201;SDS011;37799;52.390;6.136;2023-02-15T01:26:07;14.05;;;5.22;;
37201;SDS011;37799;52.390;6.136;2023-02-15T01:28:33;14.80;;;4.18;;
37201;SDS011;37799;52.390;6.136;2023-02-15T01:30:58;15.05;;;5.03;;
37201;SDS011;37799;52.390;6.136;2023-02-15T01:33:24;14.13;;;5.90;;
37201;SDS011;37799;52.390;6.136;2023-02-15T01:35:55;15.20;;;4.78;;
37201;SDS011;37799;52.390;6.136;2023-02-15T01:38:21;14.77;;;4.57;;
37201;SDS011;37799;52.390;6.136;2023-02-15T01:40:49;14.65;;;4.60;;
37201;SDS011;37799;52.390;6.136;2023-02-15T01:43:16;11.75;;;3.88;;
37201;SDS011;37799;52.390;6.136;2023-02-15T01:45:41;14.20;;;4.13;;
37201;SDS011;37799;52.390;6.136;2023-02-15T01:48:24;10.77;;;3.92;;
37201;SDS011;37799;52.390;6.136;2023-02-15T01:50:53;9.70;;;3.83;;
37201;SDS011;37799;52.390;6.136;2023-02-15T01:53:26;15.45;;;4.70;;
37201;SDS011;37799;52.390;6.136;2023-02-15T01:56:06;14.35;;;4.35;;
37201;SDS011;37799;52.390;6.136;2023-02-15T01:58:44;11.10;;;3.58;;
37201;SDS011;37799;52.390;6.136;2023-02-15T02:01:11;15.60;;;5.10;;
37201;SDS011;37799;52.390;6.136;2023-02-15T02:06:29;12.23;;;4.40;;
37201;SDS011;37799;52.390;6.136;2023-02-15T02:08:57;12.23;;;4.28;;
37201;SDS011;37799;52.390;6.136;2023-02-15T02:11:22;13.07;;;5.07;;
37201;SDS011;37799;52.390;6.136;2023-02-15T02:13:48;12.27;;;4.57;;
37201;SDS011;37799;52.390;6.136;2023-02-15T02:21:51;10.55;;;3.70;;
37201;SDS011;37799;52.390;6.136;2023-02-15T02:35:49;14.00;;;3.78;;
37201;SDS011;37799;52.390;6.136;2023-02-15T02:38:26;8.50;;;3.72;;
37201;SDS011;37799;52.390;6.136;2023-02-15T02:41:15;12.13;;;3.25;;
37201;SDS011;37799;52.390;6.136;2023-02-15T02:47:05;11.85;;;3.60;;
37201;SDS011;37799;52.390;6.136;2023-02-15T02:49:37;12.32;;;4.05;;
37201;SDS011;37799;52.390;6.136;2023-02-15T02:52:05;15.57;;;5.13;;
37201;SDS011;37799;52.390;6.136;2023-02-15T02:54:33;13.70;;;4.18;;
37201;SDS011;37799;52.390;6.136;2023-02-15T02:57:01;14.55;;;4.72;;
37201;SDS011;37799;52.390;6.136;2023-02-15T02:59:32;11.60;;;3.60;;
37201;SDS011;37799;52.390;6.136;2023-02-15T03:02:10;13.73;;;4.05;;
37201;SDS011;37799;52.390;6.136;2023-02-15T03:04:44;11.98;;;3.78;;
37201;SDS011;37799;52.390;6.136;2023-02-15T03:07:14;12.73;;;4.07;;
37201;SDS011;37799;52.390;6.136;2023-02-15T03:09:47;12.73;;;3.90;;
37201;SDS011;37799;52.390;6.136;2023-02-15T03:12:17;12.45;;;3.90;;
37201;SDS011;37799;52.390;6.136;2023-02-15T03:14:56;11.15;;;3.50;;
37201;SDS011;37799;52.390;6.136;2023-02-15T03:17:27;14.55;;;4.47;;
37201;SDS011;37799;52.390;6.136;2023-02-15T03:19:58;13.55;;;3.85;;
37201;SDS011;37799;52.390;6.136;2023-02-15T03:22:30;14.77;;;4.68;;
37201;SDS011;37799;52.390;6.136;2023-02-15T03:28:06;16.10;;;4.82;;
37201;SDS011;37799;52.390;6.136;2023-02-15T03:30:34;13.00;;;4.47;;
37201;SDS011;37799;52.390;6.136;2023-02-15T03:33:01;14.82;;;4.40;;
37201;SDS011;37799;52.390;6.136;2023-02-15T03:35:49;12.93;;;4.43;;
37201;SDS011;37799;52.390;6.136;2023-02-15T03:38:29;13.07;;;3.72;;
37201;SDS011;37799;52.390;6.136;2023-02-15T03:41:01;14.00;;;5.07;;
37201;SDS011;37799;52.390;6.136;2023-02-15T03:43:56;12.15;;;3.63;;
37201;SDS011;37799;52.390;6.136;2023-02-15T03:46:30;14.13;;;4.50;;
37201;SDS011;37799;52.390;6.136;2023-02-15T03:49:07;11.60;;;3.97;;
37201;SDS011;37799;52.390;6.136;2023-02-15T03:51:39;17.17;;;4.80;;
37201;SDS011;37799;52.390;6.136;2023-02-15T03:54:08;14.60;;;4.90;;
37201;SDS011;37799;52.390;6.136;2023-02-15T03:57:04;18.20;;;4.82;;
37201;SDS011;37799;52.390;6.136;2023-02-15T03:59:48;14.23;;;4.47;;
37201;SDS011;37799;52.390;6.136;2023-02-15T04:02:40;13.43;;;4.40;;
37201;SDS011;37799;52.390;6.136;2023-02-15T04:05:16;15.05;;;4.80;;
37201;SDS011;37799;52.390;6.136;2023-02-15T04:07:42;13.52;;;4.43;;
37201;SDS011;37799;52.390;6.136;2023-02-15T04:10:08;14.60;;;4.30;;
37201;SDS011;37799;52.390;6.136;2023-02-15T04:12:52;15.43;;;3.90;;
37201;SDS011;37799;52.390;6.136;2023-02-15T04:15:17;18.40;;;4.57;;
37201;SDS011;37799;52.390;6.136;2023-02-15T04:18:05;14.38;;;5.25;;
37201;SDS011;37799;52.390;6.136;2023-02-15T04:20:30;14.65;;;4.25;;
37201;SDS011;37799;52.390;6.136;2023-02-15T04:23:14;19.05;;;5.72;;
37201;SDS011;37799;52.390;6.136;2023-02-15T04:25:58;14.25;;;4.57;;
37201;SDS011;37799;52.390;6.136;2023-02-15T04:28:23;14.43;;;4.13;;
37201;SDS011;37799;52.390;6.136;2023-02-15T04:30:49;13.52;;;3.60;;
37201;SDS011;37799;52.390;6.136;2023-02-15T04:33:14;12.15;;;4.40;;
37201;SDS011;37799;52.390;6.136;2023-02-15T04:35:40;12.93;;;3.95;;
37201;SDS011;37799;52.390;6.136;2023-02-15T04:38:05;13.40;;;4.38;;
37201;SDS011;37799;52.390;6.136;2023-02-15T04:40:30;14.85;;;4.00;;
37201;SDS011;37799;52.390;6.136;2023-02-15T04:42:56;14.90;;;3.65;;
37201;SDS011;37799;52.390;6.136;2023-02-15T04:45:21;9.75;;;3.50;;
37201;SDS011;37799;52.390;6.136;2023-02-15T04:47:46;10.50;;;3.72;;
37201;SDS011;37799;52.390;6.136;2023-02-15T04:50:12;13.30;;;3.95;;
37201;SDS011;37799;52.390;6.136;2023-02-15T04:52:37;12.65;;;3.72;;
37201;SDS011;37799;52.390;6.136;2023-02-15T04:55:03;8.77;;;3.05;;
37201;SDS011;37799;52.390;6.136;2023-02-15T04:57:28;13.43;;;3.47;;
37201;SDS011;37799;52.390;6.136;2023-02-15T04:59:54;15.05;;;4.18;;
37201;SDS011;37799;52.390;6.136;2023-02-15T05:02:19;12.90;;;4.45;;
37201;SDS011;37799;52.390;6.136;2023-02-15T05:04:44;16.95;;;3.38;;
37201;SDS011;37799;52.390;6.136;2023-02-15T05:07:10;16.55;;;4.28;;
37201;SDS011;37799;52.390;6.136;2023-02-15T05:09:35;10.10;;;3.13;;
37201;SDS011;37799;52.390;6.136;2023-02-15T05:12:00;14.95;;;3.78;;
37201;SDS011;37799;52.390;6.136;2023-02-15T05:14:26;11.20;;;3.50;;
37201;SDS011;37799;52.390;6.136;2023-02-15T05:16:51;13.85;;;3.60;;
37201;SDS011;37799;52.390;6.136;2023-02-15T05:19:16;10.57;;;3.65;;
37201;SDS011;37799;52.390;6.136;2023-02-15T05:21:42;11.50;;;3.58;;
37201;SDS011;37799;52.390;6.136;2023-02-15T05:24:07;13.15;;;3.67;;
37201;SDS011;37799;52.390;6.136;2023-02-15T05:26:52;11.07;;;3.70;;
37201;SDS011;37799;52.390;6.136;2023-02-15T05:29:36;9.32;;;2.80;;
37201;SDS011;37799;52.390;6.136;2023-02-15T05:32:01;12.80;;;3.40;;
37201;SDS011;37799;52.390;6.136;2023-02-15T05:34:27;13.95;;;3.65;;
37201;SDS011;37799;52.390;6.136;2023-02-15T05:36:52;12.80;;;3.80;;
37201;SDS011;37799;52.390;6.136;2023-02-15T05:39:18;9.85;;;3.17;;
37201;SDS011;37799;52.390;6.136;2023-02-15T05:41:43;12.05;;;4.25;;
37201;SDS011;37799;52.390;6.136;2023-02-15T05:44:08;11.98;;;3.75;;
37201;SDS011;37799;52.390;6.136;2023-02-15T05:46:33;11.50;;;2.97;;
37201;SDS011;37799;52.390;6.136;2023-02-15T05:48:59;9.65;;;2.92;;
37201;SDS011;37799;52.390;6.136;2023-02-15T05:51:24;7.80;;;2.45;;
37201;SDS011;37799;52.390;6.136;2023-02-15T05:53:49;8.50;;;2.80;;
37201;SDS011;37799;52.390;6.136;2023-02-15T05:56:15;14.60;;;3.60;;
37201;SDS011;37799;52.390;6.136;2023-02-15T05:58:40;14.52;;;3.55;;
37201;SDS011;37799;52.390;6.136;2023-02-15T06:01:13;12.57;;;4.15;;
37201;SDS011;37799;52.390;6.136;2023-02-15T06:03:40;12.80;;;3.78;;
37201;SDS011;37799;52.390;6.136;2023-02-15T06:06:06;9.05;;;3.67;;
37201;SDS011;37799;52.390;6.136;2023-02-15T06:08:32;9.02;;;2.95;;
37201;SDS011;37799;52.390;6.136;2023-02-15T06:10:58;12.02;;;3.53;;
37201;SDS011;37799;52.390;6.136;2023-02-15T06:13:23;13.88;;;3.63;;
37201;SDS011;37799;52.390;6.136;2023-02-15T06:15:49;9.82;;;3.75;;
37201;SDS011;37799;52.390;6.136;2023-02-15T06:18:14;12.10;;;3.33;;
37201;SDS011;37799;52.390;6.136;2023-02-15T06:20:39;14.05;;;3.45;;
37201;SDS011;37799;52.390;6.136;2023-02-15T06:23:05;10.98;;;3.58;;
37201;SDS011;37799;52.390;6.136;2023-02-15T06:25:30;12.63;;;3.40;;
37201;SDS011;37799;52.390;6.136;2023-02-15T06:27:55;18.17;;;4.78;;
37201;SDS011;37799;52.390;6.136;2023-02-15T06:30:21;14.70;;;4.78;;
37201;SDS011;37799;52.390;6.136;2023-02-15T06:32:46;13.38;;;3.83;;
37201;SDS011;37799;52.390;6.136;2023-02-15T06:35:11;15.35;;;3.78;;
37201;SDS011;37799;52.390;6.136;2023-02-15T06:37:37;12.82;;;3.15;;
37201;SDS011;37799;52.390;6.136;2023-02-15T06:40:02;13.82;;;4.20;;
37201;SDS011;37799;52.390;6.136;2023-02-15T06:42:29;12.55;;;3.85;;
37201;SDS011;37799;52.390;6.136;2023-02-15T06:44:55;20.58;;;4.82;;
37201;SDS011;37799;52.390;6.136;2023-02-15T06:47:20;12.10;;;4.43;;
37201;SDS011;37799;52.390;6.136;2023-02-15T06:49:45;12.85;;;3.63;;
37201;SDS011;37799;52.390;6.136;2023-02-15T06:52:11;16.20;;;3.90;;
37201;SDS011;37799;52.390;6.136;2023-02-15T06:54:36;16.77;;;4.60;;
37201;SDS011;37799;52.390;6.136;2023-02-15T06:57:01;14.68;;;5.00;;
37201;SDS011;37799;52.390;6.136;2023-02-15T06:59:27;15.75;;;4.32;;
37201;SDS011;37799;52.390;6.136;2023-02-15T07:01:52;14.85;;;4.53;;
37201;SDS011;37799;52.390;6.136;2023-02-15T07:04:17;15.77;;;4.38;;
37201;SDS011;37799;52.390;6.136;2023-02-15T07:06:43;18.88;;;4.63;;
37201;SDS011;37799;52.390;6.136;2023-02-15T07:09:08;17.17;;;4.90;;
37201;SDS011;37799;52.390;6.136;2023-02-15T07:11:34;17.50;;;5.10;;
37201;SDS011;37799;52.390;6.136;2023-02-15T07:14:17;12.00;;;4.53;;
37201;SDS011;37799;52.390;6.136;2023-02-15T07:16:43;20.48;;;4.80;;
37201;SDS011;37799;52.390;6.136;2023-02-15T07:19:08;15.05;;;5.22;;
37201;SDS011;37799;52.390;6.136;2023-02-15T07:21:34;16.17;;;4.32;;
37201;SDS011;37799;52.390;6.136;2023-02-15T07:24:00;17.25;;;5.30;;
37201;SDS011;37799;52.390;6.136;2023-02-15T07:26:25;20.70;;;6.63;;
37201;SDS011;37799;52.390;6.136;2023-02-15T07:28:51;13.95;;;4.82;;
37201;SDS011;37799;52.390;6.136;2023-02-15T07:31:16;17.08;;;5.75;;
37201;SDS011;37799;52.390;6.136;2023-02-15T07:33:42;27.67;;;6.93;;
37201;SDS011;37799;52.390;6.136;2023-02-15T07:36:07;19.90;;;6.35;;
37201;SDS011;37799;52.390;6.136;2023-02-15T07:38:37;18.02;;;5.93;;
37201;SDS011;37799;52.390;6.136;2023-02-15T07:41:05;18.65;;;4.82;;
37201;SDS011;37799;52.390;6.136;2023-02-15T07:43:39;16.23;;;5.32;;
37201;SDS011;37799;52.390;6.136;2023-02-15T07:46:08;18.10;;;6.00;;
37201;SDS011;37799;52.390;6.136;2023-02-15T07:48:36;20.92;;;6.88;;
37201;SDS011;37799;52.390;6.136;2023-02-15T07:51:03;22.02;;;6.25;;
37201;SDS011;37799;52.390;6.136;2023-02-15T07:53:29;18.55;;;6.25;;
37201;SDS011;37799;52.390;6.136;2023-02-15T07:55:58;23.02;;;5.80;;
37201;SDS011;37799;52.390;6.136;2023-02-15T07:58:25;22.23;;;6.28;;
37201;SDS011;37799;52.390;6.136;2023-02-15T08:01:10;22.38;;;6.88;;
37201;SDS011;37799;52.390;6.136;2023-02-15T08:03:35;22.42;;;7.25;;
37201;SDS011;37799;52.390;6.136;2023-02-15T08:06:00;21.90;;;6.22;;
37201;SDS011;37799;52.390;6.136;2023-02-15T08:08:26;21.85;;;7.07;;
37201;SDS011;37799;52.390;6.136;2023-02-15T08:13:47;22.65;;;7.57;;
37201;SDS011;37799;52.390;6.136;2023-02-15T08:16:19;29.05;;;9.00;;
37201;SDS011;37799;52.390;6.136;2023-02-15T08:18:47;27.55;;;8.82;;
37201;SDS011;37799;52.390;6.136;2023-02-15T08:21:12;26.83;;;8.20;;
37201;SDS011;37799;52.390;6.136;2023-02-15T08:23:38;27.92;;;8.60;;
37201;SDS011;37799;52.390;6.136;2023-02-15T08:26:03;27.25;;;8.00;;
37201;SDS011;37799;52.390;6.136;2023-02-15T08:28:29;25.27;;;8.50;;
37201;SDS011;37799;52.390;6.136;2023-02-15T08:30:55;32.47;;;9.75;;
37201;SDS011;37799;52.390;6.136;2023-02-15T08:33:20;25.80;;;9.27;;
37201;SDS011;37799;52.390;6.136;2023-02-15T08:35:45;30.50;;;10.65;;
37201;SDS011;37799;52.390;6.136;2023-02-15T08:38:10;30.13;;;9.48;;
37201;SDS011;37799;52.390;6.136;2023-02-15T08:40:36;35.05;;;10.57;;
37201;SDS011;37799;52.390;6.136;2023-02-15T08:43:02;35.78;;;12.00;;
37201;SDS011;37799;52.390;6.136;2023-02-15T08:45:28;46.28;;;13.27;;
37201;SDS011;37799;52.390;6.136;2023-02-15T08:47:53;38.47;;;11.60;;
37201;SDS011;37799;52.390;6.136;2023-02-15T08:50:18;32.35;;;10.93;;
37201;SDS011;37799;52.390;6.136;2023-02-15T08:52:44;35.47;;;11.65;;
37201;SDS011;37799;52.390;6.136;2023-02-15T08:55:09;49.28;;;13.32;;
37201;SDS011;37799;52.390;6.136;2023-02-15T08:57:34;37.22;;;11.98;;
37201;SDS011;37799;52.390;6.136;2023-02-15T09:00:00;45.85;;;13.27;;
37201;SDS011;37799;52.390;6.136;2023-02-15T09:02:26;50.25;;;13.73;;
37201;SDS011;37799;52.390;6.136;2023-02-15T09:04:52;39.17;;;13.15;;
37201;SDS011;37799;52.390;6.136;2023-02-15T09:07:17;48.67;;;15.02;;
37201;SDS011;37799;52.390;6.136;2023-02-15T09:09:43;38.45;;;13.10;;
37201;SDS011;37799;52.390;6.136;2023-02-15T09:12:10;45.75;;;12.07;;
37201;SDS011;37799;52.390;6.136;2023-02-15T09:14:35;36.47;;;11.23;;
37201;SDS011;37799;52.390;6.136;2023-02-15T09:17:01;43.83;;;13.30;;
37201;SDS011;37799;52.390;6.136;2023-02-15T09:19:26;43.38;;;13.98;;
37201;SDS011;37799;52.390;6.136;2023-02-15T09:21:51;50.05;;;14.48;;
37201;SDS011;37799;52.390;6.136;2023-02-15T09:24:17;59.65;;;16.63;;
37201;SDS011;37799;52.390;6.136;2023-02-15T09:26:44;59.08;;;16.20;;
37201;SDS011;37799;52.390;6.136;2023-02-15T09:29:12;51.58;;;15.85;;
37201;SDS011;37799;52.390;6.136;2023-02-15T09:31:43;49.00;;;14.80;;
37201;SDS011;37799;52.390;6.136;2023-02-15T09:34:11;48.38;;;15.00;;
37201;SDS011;37799;52.390;6.136;2023-02-15T09:36:39;43.58;;;13.38;;
37201;SDS011;37799;52.390;6.136;2023-02-15T09:39:09;29.73;;;10.77;;
37201;SDS011;37799;52.390;6.136;2023-02-15T09:50:20;21.42;;;8.07;;
37201;SDS011;37799;52.390;6.136;2023-02-15T09:55:29;15.80;;;5.68;;
37201;SDS011;37799;52.390;6.136;2023-02-15T09:58:13;18.35;;;5.90;;
37201;SDS011;37799;52.390;6.136;2023-02-15T10:01:06;18.58;;;6.80;;
37201;SDS011;37799;52.390;6.136;2023-02-15T10:04:09;17.00;;;6.43;;
37201;SDS011;37799;52.390;6.136;2023-02-15T10:12:20;18.15;;;6.50;;
37201;SDS011;37799;52.390;6.136;2023-02-15T10:20:19;19.55;;;6.38;;
37201;SDS011;37799;52.390;6.136;2023-02-15T10:23:12;19.95;;;5.95;;
37201;SDS011;37799;52.390;6.136;2023-02-15T10:26:00;20.55;;;7.13;;
37201;SDS011;37799;52.390;6.136;2023-02-15T10:28:33;18.08;;;6.50;;
37201;SDS011;37799;52.390;6.136;2023-02-15T10:31:12;15.68;;;5.93;;
37201;SDS011;37799;52.390;6.136;2023-02-15T10:39:38;16.85;;;5.57;;
37201;SDS011;37799;52.390;6.136;2023-02-15T10:42:30;18.23;;;6.70;;
37201;SDS011;37799;52.390;6.136;2023-02-15T10:45:11;17.58;;;6.18;;
37201;SDS011;37799;52.390;6.136;2023-02-15T10:50:24;19.73;;;6.28;;
37201;SDS011;37799;52.390;6.136;2023-02-15T10:53:13;21.65;;;6.53;;
37201;SDS011;37799;52.390;6.136;2023-02-15T10:55:58;20.20;;;6.03;;
37201;SDS011;37799;52.390;6.136;2023-02-15T11:01:25;17.30;;;6.20;;
37201;SDS011;37799;52.390;6.136;2023-02-15T11:07:02;16.60;;;5.38;;
37201;SDS011;37799;52.390;6.136;2023-02-15T11:09:38;15.07;;;5.88;;
37201;SDS011;37799;52.390;6.136;2023-02-15T11:12:11;16.67;;;6.70;;
37201;SDS011;37799;52.390;6.136;2023-02-15T11:17:30;16.50;;;6.05;;
37201;SDS011;37799;52.390;6.136;2023-02-15T11:20:08;18.90;;;7.13;;
37201;SDS011;37799;52.390;6.136;2023-02-15T11:22:56;16.25;;;6.22;;
37201;SDS011;37799;52.390;6.136;2023-02-15T11:25:25;17.88;;;6.47;;
37201;SDS011;37799;52.390;6.136;2023-02-15T11:27:55;17.30;;;5.88;;
37201;SDS011;37799;52.390;6.136;2023-02-15T11:30:21;17.83;;;6.65;;
37201;SDS011;37799;52.390;6.136;2023-02-15T11:32:50;16.90;;;6.18;;
37201;SDS011;37799;52.390;6.136;2023-02-15T11:35:20;13.98;;;6.07;;
37201;SDS011;37799;52.390;6.136;2023-02-15T11:40:41;16.48;;;6.13;;
37201;SDS011;37799;52.390;6.136;2023-02-15T11:46:00;21.30;;;7.50;;
37201;SDS011;37799;52.390;6.136;2023-02-15T11:48:26;15.75;;;5.70;;
37201;SDS011;37799;52.390;6.136;2023-02-15T11:50:55;16.33;;;5.32;;
37201;SDS011;37799;52.390;6.136;2023-02-15T11:53:22;17.60;;;6.45;;
37201;SDS011;37799;52.390;6.136;2023-02-15T11:55:52;14.15;;;5.35;;
37201;SDS011;37799;52.390;6.136;2023-02-15T12:01:23;14.63;;;5.57;;
37201;SDS011;37799;52.390;6.136;2023-02-15T12:07:29;18.02;;;7.10;;
37201;SDS011;37799;52.390;6.136;2023-02-15T12:12:24;15.40;;;5.20;;
37201;SDS011;37799;52.390;6.136;2023-02-15T12:14:52;14.00;;;4.88;;
37201;SDS011;37799;52.390;6.136;2023-02-15T12:17:26;17.00;;;5.28;;
37201;SDS011;37799;52.390;6.136;2023-02-15T12:19:57;15.70;;;6.00;;
37201;SDS011;37799;52.390;6.136;2023-02-15T12:24:58;15.93;;;6.32;;
37201;SDS011;37799;52.390;6.136;2023-02-15T12:27:26;17.33;;;5.72;;
37201;SDS011;37799;52.390;6.136;2023-02-15T12:29:56;15.55;;;6.07;;
37201;SDS011;37799;52.390;6.136;2023-02-15T12:32:28;16.55;;;6.25;;
37201;SDS011;37799;52.390;6.136;2023-02-15T12:35:02;17.85;;;6.63;;
37201;SDS011;37799;52.390;6.136;2023-02-15T12:37:35;15.60;;;6.00;;
37201;SDS011;37799;52.390;6.136;2023-02-15T12:40:02;17.50;;;6.75;;
37201;SDS011;37799;52.390;6.136;2023-02-15T12:42:43;16.80;;;5.45;;
37201;SDS011;37799;52.390;6.136;2023-02-15T12:45:23;15.10;;;5.85;;
37201;SDS011;37799;52.390;6.136;2023-02-15T12:50:49;17.33;;;5.57;;
37201;SDS011;37799;52.390;6.136;2023-02-15T12:53:17;16.98;;;6.13;;
37201;SDS011;37799;52.390;6.136;2023-02-15T12:55:49;16.52;;;5.53;;
37201;SDS011;37799;52.390;6.136;2023-02-15T13:00:43;15.63;;;5.85;;
37201;SDS011;37799;52.390;6.136;2023-02-15T13:03:16;15.13;;;5.22;;
37201;SDS011;37799;52.390;6.136;2023-02-15T13:05:45;16.77;;;6.20;;
37201;SDS011;37799;52.390;6.136;2023-02-15T13:08:17;14.68;;;5.57;;
37201;SDS011;37799;52.390;6.136;2023-02-15T13:13:23;16.58;;;6.03;;
37201;SDS011;37799;52.390;6.136;2023-02-15T13:15:56;17.10;;;5.85;;
37201;SDS011;37799;52.390;6.136;2023-02-15T13:18:28;17.55;;;6.28;;
37201;SDS011;37799;52.390;6.136;2023-02-15T13:21:09;15.80;;;5.72;;
37201;SDS011;37799;52.390;6.136;2023-02-15T13:23:36;18.75;;;6.93;;
37201;SDS011;37799;52.390;6.136;2023-02-15T13:26:04;18.17;;;6.43;;
37201;SDS011;37799;52.390;6.136;2023-02-15T13:28:38;18.77;;;6.20;;
37201;SDS011;37799;52.390;6.136;2023-02-15T13:31:12;16.17;;;6.22;;
37201;SDS011;37799;52.390;6.136;2023-02-15T13:33:39;18.23;;;6.32;;
37201;SDS011;37799;52.390;6.136;2023-02-15T13:42:03;15.18;;;5.22;;
37201;SDS011;37799;52.390;6.136;2023-02-15T13:44:46;16.83;;;5.45;;
37201;SDS011;37799;52.390;6.136;2023-02-15T13:47:43;16.00;;;4.80;;
37201;SDS011;37799;52.390;6.136;2023-02-15T13:58:05;15.70;;;5.88;;
37201;SDS011;37799;52.390;6.136;2023-02-15T14:22:08;16.58;;;5.57;;
37201;SDS011;37799;52.390;6.136;2023-02-15T14:30:34;19.85;;;6.95;;
37201;SDS011;37799;52.390;6.136;2023-02-15T14:33:07;15.60;;;5.50;;
37201;SDS011;37799;52.390;6.136;2023-02-15T14:35:50;18.98;;;6.13;;
37201;SDS011;37799;52.390;6.136;2023-02-15T14:40:54;13.85;;;5.15;;
37201;SDS011;37799;52.390;6.136;2023-02-15T14:46:34;17.38;;;5.95;;
37201;SDS011;37799;52.390;6.136;2023-02-15T14:56:42;17.98;;;6.25;;
37201;SDS011;37799;52.390;6.136;2023-02-15T14:59:19;14.60;;;5.15;;
37201;SDS011;37799;52.390;6.136;2023-02-15T15:01:54;18.50;;;6.85;;
37201;SDS011;37799;52.390;6.136;2023-02-15T15:05:06;16.60;;;5.35;;
37201;SDS011;37799;52.390;6.136;2023-02-15T15:07:23;19.48;;;6.57;;
37201;SDS011;37799;52.390;6.136;2023-02-15T15:14:50;17.80;;;5.57;;
37201;SDS011;37799;52.390;6.136;2023-02-15T15:25:40;17.15;;;6.00;;
37201;SDS011;37799;52.390;6.136;2023-02-15T15:28:08;16.50;;;5.57;;
37201;SDS011;37799;52.390;6.136;2023-02-15T15:33:01;17.07;;;5.87;;
37201;SDS011;37799;52.390;6.136;2023-02-15T15:41:43;16.48;;;5.50;;
37201;SDS011;37799;52.390;6.136;2023-02-15T15:44:28;16.25;;;5.20;;
37201;SDS011;37799;52.390;6.136;2023-02-15T15:50:00;16.45;;;5.22;;
37201;SDS011;37799;52.390;6.136;2023-02-15T15:52:26;17.52;;;5.72;;
37201;SDS011;37799;52.390;6.136;2023-02-15T15:54:54;15.43;;;6.07;;
37201;SDS011;37799;52.390;6.136;2023-02-15T15:57:29;16.00;;;5.82;;
37201;SDS011;37799;52.390;6.136;2023-02-15T15:59:58;17.90;;;6.30;;
37201;SDS011;37799;52.390;6.136;2023-02-15T16:02:24;16.58;;;6.32;;
37201;SDS011;37799;52.390;6.136;2023-02-15T16:04:51;18.38;;;6.30;;
37201;SDS011;37799;52.390;6.136;2023-02-15T16:12:29;16.63;;;5.90;;
37201;SDS011;37799;52.390;6.136;2023-02-15T16:14:56;19.90;;;6.95;;
37201;SDS011;37799;52.390;6.136;2023-02-15T16:17:24;19.77;;;6.68;;
37201;SDS011;37799;52.390;6.136;2023-02-15T16:19:52;21.42;;;7.10;;
37201;SDS011;37799;52.390;6.136;2023-02-15T16:22:26;20.42;;;5.93;;
37201;SDS011;37799;52.390;6.136;2023-02-15T16:25:15;18.08;;;6.50;;
37201;SDS011;37799;52.390;6.136;2023-02-15T16:30:32;16.53;;;5.73;;
37201;SDS011;37799;52.390;6.136;2023-02-15T16:33:06;15.50;;;5.50;;
37201;SDS011;37799;52.390;6.136;2023-02-15T16:35:32;18.55;;;5.78;;
37201;SDS011;37799;52.390;6.136;2023-02-15T16:37:59;18.73;;;6.15;;
37201;SDS011;37799;52.390;6.136;2023-02-15T16:42:53;16.67;;;6.32;;
37201;SDS011;37799;52.390;6.136;2023-02-15T16:45:22;17.97;;;5.77;;
37201;SDS011;37799;52.390;6.136;2023-02-15T16:47:53;19.20;;;6.05;;
37201;SDS011;37799;52.390;6.136;2023-02-15T16:50:30;19.42;;;6.18;;
37201;SDS011;37799;52.390;6.136;2023-02-15T16:52:58;18.85;;;6.70;;
37201;SDS011;37799;52.390;6.136;2023-02-15T16:55:25;13.93;;;6.05;;
37201;SDS011;37799;52.390;6.136;2023-02-15T16:57:57;17.60;;;6.38;;
37201;SDS011;37799;52.390;6.136;2023-02-15T17:00:26;15.48;;;5.80;;
37201;SDS011;37799;52.390;6.136;2023-02-15T17:05:45;18.58;;;6.47;;
37201;SDS011;37799;52.390;6.136;2023-02-15T17:11:00;18.42;;;7.00;;
37201;SDS011;37799;52.390;6.136;2023-02-15T17:13:29;19.15;;;6.20;;
37201;SDS011;37799;52.390;6.136;2023-02-15T17:18:23;17.55;;;6.38;;
37201;SDS011;37799;52.390;6.136;2023-02-15T17:20:50;19.85;;;7.22;;
37201;SDS011;37799;52.390;6.136;2023-02-15T17:23:33;19.83;;;7.95;;
37201;SDS011;37799;52.390;6.136;2023-02-15T17:26:02;20.20;;;6.43;;
37201;SDS011;37799;52.390;6.136;2023-02-15T17:28:37;19.58;;;7.22;;
37201;SDS011;37799;52.390;6.136;2023-02-15T17:31:12;21.75;;;6.68;;
37201;SDS011;37799;52.390;6.136;2023-02-15T17:33:39;20.80;;;6.35;;
37201;SDS011;37799;52.390;6.136;2023-02-15T17:36:09;20.08;;;7.93;;
37201;SDS011;37799;52.390;6.136;2023-02-15T17:38:39;21.45;;;7.70;;
37201;SDS011;37799;52.390;6.136;2023-02-15T17:41:06;17.77;;;6.53;;
37201;SDS011;37799;52.390;6.136;2023-02-15T17:43:32;19.40;;;6.90;;
37201;SDS011;37799;52.390;6.136;2023-02-15T17:45:57;21.02;;;6.93;;
37201;SDS011;37799;52.390;6.136;2023-02-15T17:48:35;20.95;;;6.70;;
37201;SDS011;37799;52.390;6.136;2023-02-15T17:51:04;19.02;;;6.70;;
37201;SDS011;37799;52.390;6.136;2023-02-15T17:53:32;22.98;;;7.18;;
37201;SDS011;37799;52.390;6.136;2023-02-15T17:55:57;18.48;;;6.85;;
37201;SDS011;37799;52.390;6.136;2023-02-15T17:58:23;20.55;;;7.22;;
37201;SDS011;37799;52.390;6.136;2023-02-15T18:00:52;24.88;;;7.68;;